Time;durP1;ratioP1;P1;durP2;ratioP2;P2;SDS_P1;SDS_P2;PMS_P1;PMS_P2;Temp;Humidity;BMP_temperature;BMP_pressure;BME280_temperature;BME280_humidity;BME280_pressure;Samples;Min_cycle;Max_cycle;Signal;HPM_P1;HPM_P2
2022/06/25 00:02:08;;;;;;;2.08;1.98;;;;;;;;;;5010490;28;20053;-75
2022/06/25 00:07:18;;;;;;;1.73;1.63;;;;;;;;;;5001034;28;20037;-75
2022/06/25 00:09:45;;;;;;;4.47;1.73;;;;;;;;;;4992802;28;20046;-75
2022/06/25 00:14:55;;;;;;;1.95;1.52;;;;;;;;;;5005343;28;20041;-74
2022/06/25 00:17:21;;;;;;;2.25;2.00;;;;;;;;;;5011991;28;20049;-75
2022/06/25 00:19:47;;;;;;;2.25;1.70;;;;;;;;;;5002442;28;20647;-75
2022/06/25 00:22:13;;;;;;;2.45;1.63;;;;;;;;;;5005877;28;20024;-74
2022/06/25 00:24:40;;;;;;;4.70;1.80;;;;;;;;;;4998455;28;20034;-76
2022/06/25 00:27:06;;;;;;;2.10;1.45;;;;;;;;;;4991942;28;20029;-77
2022/06/25 00:29:32;;;;;;;3.15;1.90;;;;;;;;;;4992758;28;20081;-77
2022/06/25 00:31:58;;;;;;;2.38;2.00;;;;;;;;;;4992426;28;20050;-76
2022/06/25 00:34:26;;;;;;;1.70;1.60;;;;;;;;;;4992448;28;20019;-76
2022/06/25 00:36:52;;;;;;;1.50;1.40;;;;;;;;;;4992211;28;20027;-76
2022/06/25 00:39:18;;;;;;;1.63;1.48;;;;;;;;;;4992013;28;20046;-77
2022/06/25 00:41:44;;;;;;;1.70;1.60;;;;;;;;;;4990778;28;20030;-75
2022/06/25 00:44:10;;;;;;;1.67;1.58;;;;;;;;;;4979601;28;20035;-75
2022/06/25 00:46:36;;;;;;;1.95;1.50;;;;;;;;;;4991844;28;20518;-75
2022/06/25 00:49:04;;;;;;;3.45;1.60;;;;;;;;;;4991029;28;20049;-75
2022/06/25 00:51:33;;;;;;;1.52;1.42;;;;;;;;;;4990988;28;20062;-76
2022/06/25 00:54:00;;;;;;;1.88;1.42;;;;;;;;;;4990511;28;20030;-75
2022/06/25 00:56:28;;;;;;;4.20;2.05;;;;;;;;;;4992131;28;20482;-75
2022/06/25 00:58:56;;;;;;;1.88;1.58;;;;;;;;;;4989971;28;20164;-75
2022/06/25 01:01:22;;;;;;;5.05;2.15;;;;;;;;;;4991836;28;20097;-75
2022/06/25 01:03:48;;;;;;;3.70;1.60;;;;;;;;;;4991606;28;20038;-75
2022/06/25 01:06:14;;;;;;;1.58;1.45;;;;;;;;;;4990762;28;20029;-74
2022/06/25 01:08:40;;;;;;;1.75;1.45;;;;;;;;;;4991866;28;20471;-74
2022/06/25 01:11:07;;;;;;;1.10;1.10;;;;;;;;;;4990977;28;20399;-74
2022/06/25 01:13:34;;;;;;;3.45;1.55;;;;;;;;;;4991916;28;20052;-75
2022/06/25 01:16:00;;;;;;;1.63;1.38;;;;;;;;;;4987907;28;20026;-75
2022/06/25 01:18:26;;;;;;;1.55;1.20;;;;;;;;;;4992102;28;20027;-74
2022/06/25 01:20:52;;;;;;;1.70;1.60;;;;;;;;;;4990486;28;20149;-75
2022/06/25 01:23:18;;;;;;;1.58;1.48;;;;;;;;;;4991086;28;20031;-75
2022/06/25 01:25:44;;;;;;;1.83;1.40;;;;;;;;;;4991586;28;20113;-75
2022/06/25 01:28:10;;;;;;;1.98;1.40;;;;;;;;;;4990963;28;20073;-75
2022/06/25 01:30:37;;;;;;;4.00;1.40;;;;;;;;;;4997685;28;20053;-75
2022/06/25 01:33:03;;;;;;;1.60;1.50;;;;;;;;;;5000881;28;20026;-76
2022/06/25 01:35:29;;;;;;;3.42;1.40;;;;;;;;;;4991496;28;20026;-74
2022/06/25 01:37:55;;;;;;;1.30;1.17;;;;;;;;;;5003222;28;20112;-74
2022/06/25 01:40:21;;;;;;;1.30;1.20;;;;;;;;;;5004536;28;20156;-76
2022/06/25 01:42:59;;;;;;;7.10;1.52;;;;;;;;;;4991498;28;20493;-75
2022/06/25 01:45:25;;;;;;;2.55;1.25;;;;;;;;;;4997984;28;20037;-75
2022/06/25 01:47:51;;;;;;;2.65;1.20;;;;;;;;;;5010562;28;20026;-75
2022/06/25 01:50:17;;;;;;;2.83;1.20;;;;;;;;;;5002331;28;20067;-75
2022/06/25 01:52:45;;;;;;;2.45;1.20;;;;;;;;;;5002421;28;20030;-75
2022/06/25 01:55:11;;;;;;;5.85;1.63;;;;;;;;;;5012564;28;20022;-75
2022/06/25 01:57:37;;;;;;;2.38;1.80;;;;;;;;;;5014014;28;20030;-75
2022/06/25 02:00:07;;;;;;;2.53;1.52;;;;;;;;;;5013524;28;20026;-75
2022/06/25 02:02:35;;;;;;;;;;;;;;;;;;5014480;28;20030;-76
2022/06/25 02:05:01;;;;;;;4.10;1.42;;;;;;;;;;4999272;28;19913;-75
2022/06/25 02:07:27;;;;;;;3.60;1.45;;;;;;;;;;5004359;28;20108;-76
2022/06/25 02:09:53;;;;;;;2.45;1.40;;;;;;;;;;5003667;28;20463;-76
2022/06/25 02:12:19;;;;;;;3.35;1.70;;;;;;;;;;4994437;28;20096;-76
2022/06/25 02:14:45;;;;;;;1.92;1.38;;;;;;;;;;4995208;28;20498;-76
2022/06/25 02:17:11;;;;;;;2.13;1.35;;;;;;;;;;4994580;28;20022;-76
2022/06/25 02:19:37;;;;;;;3.10;1.25;;;;;;;;;;5003461;28;20026;-76
2022/06/25 02:22:03;;;;;;;2.88;1.42;;;;;;;;;;5009510;28;20030;-75
2022/06/25 02:24:29;;;;;;;1.77;1.20;;;;;;;;;;5003013;28;20018;-75
2022/06/25 02:26:55;;;;;;;1.73;1.30;;;;;;;;;;4979163;28;20034;-74
2022/06/25 02:29:21;;;;;;;2.67;1.63;;;;;;;;;;4994024;28;20076;-75
2022/06/25 02:31:47;;;;;;;2.70;1.20;;;;;;;;;;4995936;28;20487;-75
2022/06/25 02:34:13;;;;;;;2.83;1.40;;;;;;;;;;4994602;28;20068;-75
2022/06/25 02:36:39;;;;;;;1.55;1.30;;;;;;;;;;4994543;28;20391;-75
2022/06/25 02:39:05;;;;;;;4.32;1.20;;;;;;;;;;4994113;28;20030;-75
2022/06/25 02:41:31;;;;;;;2.13;1.08;;;;;;;;;;4999969;28;20030;-76
2022/06/25 02:43:57;;;;;;;3.75;1.35;;;;;;;;;;4996297;28;20391;-74
2022/06/25 02:46:23;;;;;;;1.85;1.40;;;;;;;;;;4994116;28;20502;-75
2022/06/25 02:48:49;;;;;;;2.53;1.40;;;;;;;;;;5010152;28;20026;-75
2022/06/25 02:51:15;;;;;;;1.70;1.10;;;;;;;;;;5000799;28;20387;-75
2022/06/25 02:53:41;;;;;;;2.47;1.30;;;;;;;;;;5010005;28;20506;-75
2022/06/25 02:58:55;;;;;;;2.28;1.20;;;;;;;;;;4995754;28;20033;-74
2022/06/25 03:01:28;;;;;;;5.32;1.35;;;;;;;;;;4993813;28;20022;-75
2022/06/25 03:03:55;;;;;;;2.42;1.17;;;;;;;;;;4994325;28;20030;-75
2022/06/25 03:06:21;;;;;;;3.65;1.13;;;;;;;;;;4993047;28;20030;-75
2022/06/25 03:08:47;;;;;;;2.10;1.20;;;;;;;;;;4994080;28;20038;-75
2022/06/25 03:11:13;;;;;;;2.78;1.40;;;;;;;;;;4994409;28;20093;-75
2022/06/25 03:13:39;;;;;;;2.58;1.40;;;;;;;;;;4994178;28;20026;-74
2022/06/25 03:16:06;;;;;;;2.97;1.30;;;;;;;;;;4976193;28;20059;-74
2022/06/25 03:18:32;;;;;;;3.47;1.30;;;;;;;;;;5004705;28;20034;-75
2022/06/25 03:20:58;;;;;;;1.25;1.08;;;;;;;;;;5004226;28;20180;-75
2022/06/25 03:23:24;;;;;;;2.97;1.15;;;;;;;;;;5012269;28;20846;-75
2022/06/25 03:25:50;;;;;;;2.75;1.13;;;;;;;;;;5012718;28;20094;-75
2022/06/25 03:28:17;;;;;;;3.35;1.17;;;;;;;;;;5012307;28;20045;-75
2022/06/25 03:30:43;;;;;;;1.65;1.20;;;;;;;;;;5013616;28;20557;-74
2022/06/25 03:33:09;;;;;;;1.67;1.35;;;;;;;;;;5011390;28;20033;-75
2022/06/25 03:35:35;;;;;;;2.08;1.17;;;;;;;;;;5010436;28;20021;-75
2022/06/25 03:38:01;;;;;;;1.23;1.08;;;;;;;;;;5012923;28;20033;-76
2022/06/25 03:40:27;;;;;;;4.57;1.55;;;;;;;;;;5012161;28;20029;-75
2022/06/25 03:42:53;;;;;;;1.33;1.00;;;;;;;;;;5013353;28;20490;-75
2022/06/25 03:45:19;;;;;;;1.58;1.48;;;;;;;;;;5012851;28;20026;-75
2022/06/25 03:47:50;;;;;;;1.10;1.00;;;;;;;;;;5013525;28;20528;-75
2022/06/25 03:50:17;;;;;;;1.80;1.00;;;;;;;;;;5010199;28;20364;-76
2022/06/25 03:52:43;;;;;;;4.68;1.20;;;;;;;;;;5009586;28;20058;-76
2022/06/25 03:55:09;;;;;;;1.25;1.00;;;;;;;;;;4992985;28;20038;-74
2022/06/25 03:57:35;;;;;;;2.90;1.15;;;;;;;;;;5008353;28;20030;-75
2022/06/25 04:00:02;;;;;;;1.17;1.00;;;;;;;;;;4993323;28;20128;-75
2022/06/25 04:02:28;;;;;;;2.30;1.33;;;;;;;;;;5003193;28;20026;-75
2022/06/25 04:04:54;;;;;;;2.28;0.77;;;;;;;;;;5012529;28;20036;-74
2022/06/25 04:07:20;;;;;;;3.92;1.15;;;;;;;;;;5010217;28;20022;-75
2022/06/25 04:09:46;;;;;;;1.45;0.90;;;;;;;;;;4998238;28;20120;-76
2022/06/25 04:12:12;;;;;;;1.10;0.90;;;;;;;;;;4990818;28;20041;-76
2022/06/25 04:14:38;;;;;;;1.80;0.73;;;;;;;;;;5004026;28;20030;-75
2022/06/25 04:17:04;;;;;;;2.85;0.95;;;;;;;;;;5012042;28;20033;-79
2022/06/25 04:19:30;;;;;;;0.73;0.73;;;;;;;;;;4995704;28;20038;-75
2022/06/25 04:21:56;;;;;;;2.03;0.82;;;;;;;;;;5011554;28;20057;-75
2022/06/25 04:24:23;;;;;;;3.70;1.40;;;;;;;;;;5000152;28;20027;-75
2022/06/25 04:26:48;;;;;;;1.00;0.95;;;;;;;;;;5004039;28;20022;-75
2022/06/25 04:29:14;;;;;;;4.20;1.00;;;;;;;;;;4998256;28;20487;-75
2022/06/25 04:31:42;;;;;;;0.93;0.93;;;;;;;;;;4993316;28;20052;-76
2022/06/25 04:34:08;;;;;;;0.90;0.90;;;;;;;;;;4991853;28;20030;-75
2022/06/25 04:36:34;;;;;;;1.80;0.80;;;;;;;;;;4992829;28;20030;-75
2022/06/25 04:39:00;;;;;;;1.50;1.23;;;;;;;;;;4992243;28;20022;-75
2022/06/25 04:41:26;;;;;;;1.40;1.10;;;;;;;;;;4995284;28;20886;-76
2022/06/25 04:43:52;;;;;;;3.13;1.50;;;;;;;;;;5005169;28;20089;-75
2022/06/25 04:46:18;;;;;;;3.40;1.35;;;;;;;;;;5000012;28;20384;-73
2022/06/25 04:48:44;;;;;;;4.97;1.80;;;;;;;;;;5010864;28;20033;-76
2022/06/25 04:51:10;;;;;;;2.50;1.05;;;;;;;;;;4992129;28;20038;-75
2022/06/25 04:53:55;;;;;;;2.28;1.20;;;;;;;;;;4995705;28;20471;-76
2022/06/25 04:56:21;;;;;;;1.38;1.15;;;;;;;;;;5010345;28;20061;-75
2022/06/25 04:58:47;;;;;;;2.95;1.48;;;;;;;;;;5008203;28;20036;-76
2022/06/25 05:01:13;;;;;;;3.20;1.50;;;;;;;;;;4995397;28;20015;-75
2022/06/25 05:03:39;;;;;;;5.95;1.42;;;;;;;;;;5000457;28;20030;-76
2022/06/25 05:06:06;;;;;;;3.53;1.40;;;;;;;;;;4991953;28;20120;-76
2022/06/25 05:08:33;;;;;;;4.07;1.20;;;;;;;;;;4991703;28;20026;-76
2022/06/25 05:10:59;;;;;;;2.15;1.58;;;;;;;;;;5008127;28;20034;-76
2022/06/25 05:13:25;;;;;;;2.20;1.20;;;;;;;;;;4996823;28;20025;-75
2022/06/25 05:15:52;;;;;;;3.30;1.20;;;;;;;;;;4994182;28;20073;-74
2022/06/25 05:18:18;;;;;;;3.03;1.20;;;;;;;;;;5000085;28;20523;-74
2022/06/25 05:20:44;;;;;;;2.60;1.17;;;;;;;;;;4998756;28;20054;-75
2022/06/25 05:23:11;;;;;;;1.70;1.20;;;;;;;;;;4991523;28;20031;-75
2022/06/25 05:25:37;;;;;;;2.55;1.33;;;;;;;;;;4991734;28;20032;-75
2022/06/25 05:28:03;;;;;;;3.22;1.88;;;;;;;;;;5000261;28;20468;-75
2022/06/25 05:30:30;;;;;;;2.83;1.10;;;;;;;;;;4998457;28;20312;-75
2022/06/25 05:32:56;;;;;;;3.28;1.13;;;;;;;;;;4998568;28;20060;-75
2022/06/25 05:35:22;;;;;;;1.42;1.10;;;;;;;;;;5004873;28;20040;-75
2022/06/25 05:37:48;;;;;;;3.30;0.90;;;;;;;;;;4998515;28;20030;-76
2022/06/25 05:40:14;;;;;;;2.78;1.30;;;;;;;;;;4996115;28;20044;-70
2022/06/25 05:42:40;;;;;;;3.17;1.75;;;;;;;;;;5013950;28;20073;-71
2022/06/25 05:45:06;;;;;;;2.55;1.33;;;;;;;;;;5002139;28;20057;-71
2022/06/25 05:47:33;;;;;;;1.40;1.30;;;;;;;;;;5016459;28;20424;-71
2022/06/25 05:49:58;;;;;;;1.52;0.95;;;;;;;;;;5013262;28;20042;-71
2022/06/25 05:52:24;;;;;;;2.38;1.02;;;;;;;;;;5006877;28;20034;-72
2022/06/25 05:54:50;;;;;;;3.05;0.90;;;;;;;;;;4999716;28;20045;-72
2022/06/25 05:57:16;;;;;;;1.50;1.05;;;;;;;;;;4997298;28;20044;-73
2022/06/25 05:59:42;;;;;;;3.70;0.80;;;;;;;;;;5001402;28;20475;-71
2022/06/25 06:02:08;;;;;;;1.85;1.00;;;;;;;;;;4997948;28;20387;-72
2022/06/25 06:04:35;;;;;;;1.30;0.88;;;;;;;;;;4997418;28;20030;-73
2022/06/25 06:07:02;;;;;;;1.95;0.80;;;;;;;;;;5003651;28;20026;-72
2022/06/25 06:09:28;;;;;;;2.40;0.80;;;;;;;;;;5012284;28;20057;-73
2022/06/25 06:11:55;;;;;;;1.13;0.93;;;;;;;;;;5009076;28;20364;-71
2022/06/25 06:14:21;;;;;;;1.33;0.82;;;;;;;;;;5016022;28;20018;-72
2022/06/25 06:16:47;;;;;;;2.70;1.13;;;;;;;;;;5015568;28;20029;-73
2022/06/25 06:19:14;;;;;;;2.90;1.27;;;;;;;;;;5000636;28;20036;-73
2022/06/25 06:21:40;;;;;;;2.90;1.13;;;;;;;;;;5000368;28;20106;-72
2022/06/25 06:24:06;;;;;;;3.63;1.33;;;;;;;;;;4997287;28;20102;-72
2022/06/25 06:26:33;;;;;;;2.70;1.10;;;;;;;;;;5009173;28;20120;-73
2022/06/25 06:28:59;;;;;;;1.98;0.95;;;;;;;;;;5015062;28;20022;-73
2022/06/25 06:31:25;;;;;;;0.85;0.77;;;;;;;;;;5014616;28;20045;-73
2022/06/25 06:33:51;;;;;;;4.53;1.13;;;;;;;;;;5013113;28;20556;-73
2022/06/25 06:36:16;;;;;;;0.98;0.98;;;;;;;;;;5012499;28;20021;-72
2022/06/25 06:38:42;;;;;;;1.52;1.00;;;;;;;;;;5015851;28;20475;-73
2022/06/25 06:41:09;;;;;;;1.13;1.02;;;;;;;;;;5011357;28;20041;-73
2022/06/25 06:43:36;;;;;;;2.67;1.13;;;;;;;;;;5010663;28;20034;-72
2022/06/25 06:46:02;;;;;;;4.00;0.80;;;;;;;;;;5007535;28;20026;-74
2022/06/25 06:48:28;;;;;;;4.70;0.80;;;;;;;;;;5010045;28;20548;-72
2022/06/25 06:50:54;;;;;;;1.17;0.70;;;;;;;;;;4994543;28;20030;-73
2022/06/25 06:53:21;;;;;;;5.07;0.95;;;;;;;;;;5008917;28;20491;-72
2022/06/25 06:55:47;;;;;;;2.92;1.20;;;;;;;;;;5011993;28;20112;-72
2022/06/25 06:58:13;;;;;;;1.38;0.70;;;;;;;;;;5007712;28;20034;-73
2022/06/25 07:00:39;;;;;;;1.33;0.98;;;;;;;;;;4986455;28;20406;-73
2022/06/25 07:03:05;;;;;;;2.70;1.00;;;;;;;;;;5009558;28;20038;-73
2022/06/25 07:05:31;;;;;;;2.42;1.27;;;;;;;;;;4993239;28;20246;-73
2022/06/25 07:07:57;;;;;;;1.33;1.02;;;;;;;;;;4994307;28;20049;-73
2022/06/25 07:10:23;;;;;;;3.67;1.10;;;;;;;;;;4993171;28;20072;-73
2022/06/25 07:12:49;;;;;;;1.88;1.08;;;;;;;;;;4993775;28;20061;-75
2022/06/25 07:15:16;;;;;;;3.45;1.00;;;;;;;;;;4993127;28;20069;-74
2022/06/25 07:17:42;;;;;;;0.68;0.68;;;;;;;;;;5001273;28;20084;-75
2022/06/25 07:20:08;;;;;;;2.25;1.30;;;;;;;;;;4997961;28;20035;-75
2022/06/25 07:22:34;;;;;;;2.30;1.00;;;;;;;;;;4992912;28;20022;-75
2022/06/25 07:25:00;;;;;;;3.38;1.00;;;;;;;;;;4993965;28;20031;-76
2022/06/25 07:27:26;;;;;;;0.98;0.90;;;;;;;;;;4976429;28;20018;-75
2022/06/25 07:29:52;;;;;;;2.30;1.13;;;;;;;;;;5005744;28;20029;-75
2022/06/25 07:32:18;;;;;;;1.58;1.10;;;;;;;;;;5004550;28;20050;-76
2022/06/25 07:34:44;;;;;;;3.28;0.90;;;;;;;;;;4996513;28;20109;-76
2022/06/25 07:37:10;;;;;;;3.60;1.13;;;;;;;;;;5002112;28;20106;-74
2022/06/25 07:39:36;;;;;;;1.65;0.98;;;;;;;;;;5001817;28;20833;-74
2022/06/25 07:42:02;;;;;;;2.90;1.08;;;;;;;;;;5013090;28;20029;-75
2022/06/25 07:44:28;;;;;;;1.25;0.90;;;;;;;;;;5011793;28;20032;-74
2022/06/25 07:46:54;;;;;;;2.95;1.27;;;;;;;;;;5012561;28;20026;-74
2022/06/25 07:49:20;;;;;;;1.50;1.00;;;;;;;;;;5006833;28;20089;-74
2022/06/25 07:52:01;;;;;;;4.05;1.70;;;;;;;;;;5012861;28;20108;-75
2022/06/25 07:54:29;;;;;;;2.70;1.00;;;;;;;;;;4998959;28;20054;-75
2022/06/25 07:56:55;;;;;;;3.47;0.98;;;;;;;;;;5000855;28;20033;-75
2022/06/25 07:59:21;;;;;;;2.45;1.25;;;;;;;;;;4999782;28;20034;-76
2022/06/25 08:01:47;;;;;;;3.83;1.08;;;;;;;;;;4994583;28;20034;-75
2022/06/25 08:04:14;;;;;;;1.05;0.90;;;;;;;;;;5011237;28;20097;-75
2022/06/25 08:06:41;;;;;;;3.72;1.27;;;;;;;;;;5011211;28;20041;-75
2022/06/25 08:09:07;;;;;;;4.70;1.23;;;;;;;;;;5002597;28;20088;-75
2022/06/25 08:11:33;;;;;;;1.42;1.25;;;;;;;;;;4993948;28;20030;-75
2022/06/25 08:13:59;;;;;;;5.70;1.10;;;;;;;;;;4993038;28;20439;-76
2022/06/25 08:16:25;;;;;;;2.30;1.35;;;;;;;;;;4997832;28;20472;-76
2022/06/25 08:18:55;;;;;;;3.67;1.20;;;;;;;;;;5000758;28;20065;-75
2022/06/25 08:21:21;;;;;;;4.60;1.30;;;;;;;;;;5003792;28;20045;-75
2022/06/25 08:23:47;;;;;;;2.13;1.23;;;;;;;;;;5009231;28;20030;-77
2022/06/25 08:26:17;;;;;;;1.40;1.10;;;;;;;;;;4997718;28;20026;-75
2022/06/25 08:28:44;;;;;;;2.45;1.00;;;23.00;99.90;;;;;;4992641;28;20014;-76
2022/06/25 08:31:10;;;;;;;1.83;1.25;;;23.00;99.90;;;;;;4973978;28;20055;-75
2022/06/25 08:33:36;;;;;;;1.20;0.90;;;23.10;99.90;;;;;;4991807;28;20028;-76
2022/06/25 08:36:02;;;;;;;4.40;1.52;;;23.20;99.90;;;;;;4992538;28;20378;-75
2022/06/25 08:38:28;;;;;;;3.63;1.20;;;23.50;99.90;;;;;;4991352;28;20088;-75
2022/06/25 08:41:00;;;;;;;1.85;1.27;;;23.70;99.90;;;;;;4973510;28;20487;-77
2022/06/25 08:43:27;;;;;;;5.40;1.60;;;23.70;99.90;;;;;;4988082;28;20030;-77
2022/06/25 08:45:55;;;;;;;3.72;1.27;;;23.60;99.90;;;;;;4992168;28;20195;-75
2022/06/25 08:48:35;;;;;;;3.67;1.25;;;23.40;99.90;;;;;;4991027;28;20035;-76
2022/06/25 08:51:04;;;;;;;3.83;1.45;;;23.40;99.90;;;;;;4992357;28;20531;-77
2022/06/25 08:53:32;;;;;;;2.50;1.50;;;23.50;99.90;;;;;;4989770;28;20046;-77
2022/06/25 08:55:58;;;;;;;2.95;1.38;;;23.40;99.90;;;;;;4988842;28;20065;-75
2022/06/25 08:58:24;;;;;;;2.75;1.33;;;23.30;99.90;;;;;;4991055;28;20479;-75
2022/06/25 09:00:49;;;;;;;1.85;1.35;;;23.30;99.90;;;;;;4991800;28;20038;-75
2022/06/25 09:03:15;;;;;;;1.70;1.25;;;23.30;99.90;;;;;;4991096;28;20039;-75
2022/06/25 09:05:43;;;;;;;1.73;0.98;;;23.30;99.90;;;;;;4990628;28;20471;-77
2022/06/25 09:08:14;;;;;;;3.67;1.83;;;23.30;99.90;;;;;;4990797;28;20071;-75
2022/06/25 09:10:41;;;;;;;2.35;1.25;;;23.20;99.90;;;;;;4988961;28;20030;-76
2022/06/25 09:13:09;;;;;;;3.60;1.30;;;23.30;99.90;;;;;;4992272;28;20117;-75
2022/06/25 09:15:40;;;;;;;2.60;1.23;;;23.30;99.90;;;;;;4990946;28;20105;-75
2022/06/25 09:18:11;;;;;;;4.65;1.50;;;23.40;99.90;;;;;;4984758;28;20029;-76
2022/06/25 09:20:55;;;;;;;1.42;1.10;;;23.60;99.90;;;;;;4973757;28;20168;-76
2022/06/25 09:23:21;;;;;;;4.75;1.85;;;23.90;99.90;;;;;;4990856;28;20505;-75
2022/06/25 09:25:58;;;;;;;1.52;1.35;;;24.20;99.80;;;;;;4989931;28;20031;-76
2022/06/25 09:28:39;;;;;;;4.07;1.10;;;24.30;98.90;;;;;;4984404;28;20503;-77
2022/06/25 09:31:05;;;;;;;1.65;1.10;;;24.40;99.30;;;;;;4991306;28;20050;-77
2022/06/25 09:33:32;;;;;;;1.67;1.00;;;24.70;99.90;;;;;;4990831;28;20360;-77
2022/06/25 09:35:59;;;;;;;3.60;1.40;;;24.90;99.90;;;;;;4991730;28;20046;-78
2022/06/25 09:38:26;;;;;;;5.28;1.33;;;25.10;99.90;;;;;;5005310;28;20109;-76
2022/06/25 09:41:00;;;;;;;3.13;1.40;;;25.10;99.90;;;;;;5010465;28;20029;-78
2022/06/25 09:43:37;;;;;;;3.20;1.50;;;25.10;99.90;;;;;;5003802;28;20041;-77
2022/06/25 09:46:05;;;;;;;3.97;1.27;;;25.00;99.90;;;;;;4992551;28;20035;-79
2022/06/25 09:48:33;;;;;;;4.35;1.40;;;25.10;99.90;;;;;;4994761;28;20054;-77
2022/06/25 09:51:11;;;;;;;1.83;1.10;;;25.10;99.90;;;;;;5007852;28;20037;-77
2022/06/25 09:53:46;;;;;;;13.50;1.88;;;25.10;99.90;;;;;;5009641;28;20921;-77
2022/06/25 09:56:15;;;;;;;1.25;1.15;;;24.90;99.90;;;;;;4992747;28;20038;-78
2022/06/25 09:58:42;;;;;;;1.55;1.20;;;24.90;99.50;;;;;;4991460;28;20027;-78
2022/06/25 10:01:09;;;;;;;1.17;1.00;;;25.20;99.90;;;;;;4996721;28;20044;-77
2022/06/25 10:03:37;;;;;;;2.38;1.20;;;25.50;99.90;;;;;;4978266;28;20166;-76
2022/06/25 10:06:03;;;;;;;1.23;1.13;;;25.60;99.90;;;;;;4987301;28;20045;-77
2022/06/25 10:08:30;;;;;;;6.10;1.40;;;25.80;99.90;;;;;;4990918;28;20384;-77
2022/06/25 10:10:56;;;;;;;1.27;1.00;;;25.90;99.90;;;;;;4992172;28;20039;-75
2022/06/25 10:13:24;;;;;;;3.60;1.88;;;26.00;94.80;;;;;;4988726;28;20034;-74
2022/06/25 10:15:51;;;;;;;2.00;1.13;;;26.00;95.60;;;;;;5002999;28;20380;-73
2022/06/25 10:18:18;;;;;;;4.90;1.25;;;26.10;96.80;;;;;;4999152;28;20038;-73
2022/06/25 10:20:44;;;;;;;2.20;1.27;;;26.10;95.70;;;;;;4994823;28;20034;-74
2022/06/25 10:23:12;;;;;;;1.90;1.13;;;26.10;96.40;;;;;;4994959;28;20083;-74
2022/06/25 10:25:39;;;;;;;4.85;1.50;;;26.20;95.20;;;;;;4993740;28;20056;-75
2022/06/25 10:28:10;;;;;;;1.27;1.17;;;26.30;95.70;;;;;;4993907;28;20038;-75
2022/06/25 10:30:53;;;;;;;2.50;1.27;;;26.30;94.90;;;;;;4993206;28;20127;-74
2022/06/25 10:33:35;;;;;;;3.42;1.08;;;26.10;94.90;;;;;;4997714;28;20040;-74
2022/06/25 10:36:04;;;;;;;2.47;1.85;;;25.80;93.70;;;;;;5007794;28;20471;-75
2022/06/25 10:38:30;;;;;;;2.47;0.93;;;25.70;94.00;;;;;;5013131;28;20033;-74
2022/06/25 10:43:57;;;;;;;1.42;1.08;;;25.90;93.50;;;;;;5009924;28;20040;-75
2022/06/25 10:46:36;;;;;;;2.03;1.13;;;26.10;93.50;;;;;;4999417;28;20046;-74
2022/06/25 10:49:08;;;;;;;3.38;1.40;;;26.20;92.80;;;;;;4992995;28;20039;-74
2022/06/25 10:51:42;;;;;;;2.80;1.30;;;26.30;92.20;;;;;;5002968;28;20209;-75
2022/06/25 10:54:33;;;;;;;5.15;1.27;;;26.30;91.90;;;;;;4996159;28;20073;-75
2022/06/25 10:57:04;;;;;;;1.58;1.20;;;26.10;92.40;;;;;;5002999;28;20530;-75
2022/06/25 10:59:41;;;;;;;2.40;1.35;;;26.10;94.30;;;;;;5003236;28;20031;-74
2022/06/25 11:02:09;;;;;;;2.10;1.27;;;26.10;93.40;;;;;;4994614;28;20030;-76
2022/06/25 11:04:36;;;;;;;1.40;1.30;;;26.00;90.40;;;;;;5009968;28;20033;-75
2022/06/25 11:07:19;;;;;;;1.88;1.70;;;26.20;90.00;;;;;;5007251;28;20105;-75
2022/06/25 11:09:57;;;;;;;1.95;1.30;;;26.40;90.50;;;;;;4993875;28;20062;-74
2022/06/25 11:12:25;;;;;;;2.10;1.02;;;;;;;;;;5005533;28;20033;-75
2022/06/25 11:15:03;;;;;;;1.70;1.30;;;26.90;86.40;;;;;;4993806;28;20077;-74
2022/06/25 11:17:30;;;;;;;5.05;1.52;;;27.10;85.50;;;;;;4992712;28;20456;-74
2022/06/25 11:20:22;;;;;;;1.73;1.20;;;27.30;86.80;;;;;;5007044;28;20049;-75
2022/06/25 11:22:51;;;;;;;7.70;2.15;;;27.30;86.90;;;;;;4998266;28;20187;-76
2022/06/25 11:30:49;;;;;;;1.88;1.35;;;27.50;85.20;;;;;;4994503;28;20062;-75
2022/06/25 11:33:15;;;;;;;1.17;1.08;;;27.60;82.30;;;;;;4992725;28;20383;-79
2022/06/25 11:35:42;;;;;;;5.93;1.30;;;27.70;80.10;;;;;;5002793;28;20398;-76
2022/06/25 11:38:19;;;;;;;2.10;1.35;;;27.80;81.80;;;;;;4996532;28;20077;-74
2022/06/25 11:40:45;;;;;;;4.38;1.70;;;28.00;80.20;;;;;;4990096;28;20494;-75
2022/06/25 11:43:14;;;;;;;4.00;1.90;;;28.10;80.40;;;;;;5003296;28;20061;-76
2022/06/25 11:45:59;;;;;;;5.35;1.00;;;28.20;78.70;;;;;;5007805;28;20057;-76
2022/06/25 11:48:29;;;;;;;1.42;1.33;;;28.20;77.00;;;;;;5006474;28;20481;-76
2022/06/25 11:50:58;;;;;;;1.88;1.10;;;28.30;76.70;;;;;;5011655;28;20038;-76
2022/06/25 11:53:24;;;;;;;1.65;1.45;;;28.40;76.50;;;;;;5011980;28;20475;-76
2022/06/25 11:55:59;;;;;;;2.17;1.20;;;28.30;75.90;;;;;;5005800;28;20112;-77
2022/06/25 11:58:28;;;;;;;2.70;0.98;;;28.20;74.40;;;;;;4993956;28;20185;-76
2022/06/25 12:00:57;;;;;;;4.10;1.52;;;28.00;75.70;;;;;;4992420;28;20034;-78
2022/06/25 12:03:25;;;;;;;2.38;1.30;;;28.00;75.80;;;;;;4990320;28;20129;-75
2022/06/25 12:05:55;;;;;;;3.25;1.48;;;28.10;75.40;;;;;;4991689;28;20042;-77
2022/06/25 12:08:21;;;;;;;;;;;28.20;76.00;;;;;;5008219;28;20022;-76
2022/06/25 12:10:48;;;;;;;2.08;1.27;;;28.30;76.30;;;;;;5011129;28;20301;-75
2022/06/25 12:13:21;;;;;;;2.58;1.10;;;28.50;72.70;;;;;;5003404;28;20045;-77
2022/06/25 12:15:47;;;;;;;1.75;1.30;;;28.40;73.50;;;;;;5007379;28;20021;-75
2022/06/25 12:18:13;;;;;;;3.45;1.35;;;28.50;73.70;;;;;;5012716;28;20029;-75
2022/06/25 12:20:57;;;;;;;1.40;1.08;;;28.50;74.10;;;;;;5010502;28;20073;-76
2022/06/25 12:23:23;;;;;;;2.05;0.90;;;28.70;71.00;;;;;;5011385;28;20030;-75
2022/06/25 12:25:48;;;;;;;3.63;1.17;;;28.80;70.80;;;;;;5010976;28;20038;-75
2022/06/25 12:28:15;;;;;;;1.92;1.10;;;29.00;71.40;;;;;;5011162;28;20025;-77
2022/06/25 12:30:41;;;;;;;1.25;1.15;;;29.00;71.30;;;;;;5004995;28;20042;-76
2022/06/25 12:33:14;;;;;;;1.02;0.90;;;29.10;70.10;;;;;;4991947;28;20056;-75
2022/06/25 12:35:43;;;;;;;2.25;1.08;;;29.10;70.60;;;;;;5002562;28;20481;-76
2022/06/25 12:38:11;;;;;;;1.50;1.25;;;29.40;68.30;;;;;;4999858;28;20026;-76
2022/06/25 12:40:43;;;;;;;2.58;1.15;;;29.40;68.00;;;;;;5009425;28;20471;-75
2022/06/25 12:43:11;;;;;;;2.08;1.20;;;29.30;68.10;;;;;;5001200;28;20036;-76
2022/06/25 12:45:39;;;;;;;1.88;1.27;;;29.30;66.90;;;;;;5003596;28;20029;-77
2022/06/25 12:48:06;;;;;;;3.08;1.10;;;29.40;67.30;;;;;;5009059;28;20034;-75
2022/06/25 12:50:34;;;;;;;2.65;1.10;;;29.50;66.10;;;;;;5008377;28;20072;-76
2022/06/25 12:53:11;;;;;;;2.00;1.17;;;29.50;66.30;;;;;;5010931;28;20467;-76
2022/06/25 12:55:38;;;;;;;1.23;1.10;;;29.50;67.70;;;;;;5002386;28;20175;-75
2022/06/25 12:58:09;;;;;;;3.25;1.10;;;29.40;67.00;;;;;;5010294;28;20053;-75
2022/06/25 13:00:40;;;;;;;1.67;0.80;;;28.90;67.60;;;;;;5007855;28;20034;-77
2022/06/25 13:03:06;;;;;;;1.35;1.25;;;28.70;69.10;;;;;;4993097;28;20185;-75
2022/06/25 13:05:33;;;;;;;1.92;1.10;;;28.70;69.40;;;;;;4992174;28;20107;-76
2022/06/25 13:08:00;;;;;;;1.73;1.10;;;28.90;69.40;;;;;;4999552;28;20545;-76
2022/06/25 13:10:26;;;;;;;1.85;1.45;;;29.10;68.60;;;;;;5004483;28;20064;-75
2022/06/25 13:12:53;;;;;;;1.42;1.10;;;29.30;68.80;;;;;;5002741;28;20030;-75
2022/06/25 13:15:20;;;;;;;3.53;1.25;;;29.40;68.40;;;;;;5006142;28;20022;-74
2022/06/25 13:17:46;;;;;;;1.23;1.13;;;29.30;67.90;;;;;;5010154;28;20045;-80
2022/06/25 13:20:12;;;;;;;1.35;1.10;;;29.10;67.90;;;;;;5009486;28;20034;-78
2022/06/25 13:22:38;;;;;;;3.35;1.15;;;29.20;67.50;;;;;;5001295;28;20026;-79
2022/06/25 13:25:07;;;;;;;1.08;0.98;;;29.40;66.40;;;;;;4991041;28;20045;-78
2022/06/25 13:27:33;;;;;;;1.20;0.90;;;29.60;67.30;;;;;;4991537;28;20383;-78
2022/06/25 13:29:59;;;;;;;2.33;0.80;;;29.80;65.70;;;;;;5003313;28;20030;-76
2022/06/25 13:32:25;;;;;;;0.93;0.80;;;30.00;66.40;;;;;;4991987;28;20050;-78
2022/06/25 13:34:52;;;;;;;0.70;0.70;;;30.20;65.50;;;;;;4978278;28;20041;-81
2022/06/25 13:37:19;;;;;;;1.20;1.02;;;30.50;64.30;;;;;;4972088;28;20038;-75
2022/06/25 13:39:44;;;;;;;2.42;1.52;;;30.60;63.60;;;;;;4980435;28;20558;-78
2022/06/25 13:42:10;;;;;;;1.42;1.23;;;30.80;64.10;;;;;;4971485;28;20023;-78
2022/06/25 13:44:36;;;;;;;2.05;1.17;;;30.80;64.60;;;;;;4984325;28;20701;-78
2022/06/25 13:47:03;;;;;;;1.92;1.00;;;30.80;64.10;;;;;;4989090;28;20483;-79
2022/06/25 13:49:28;;;;;;;1.30;1.00;;;30.80;63.30;;;;;;4991801;28;20032;-79
2022/06/25 13:51:54;;;;;;;3.90;1.45;;;30.60;63.80;;;;;;4985519;28;20022;-78
2022/06/25 13:54:19;;;;;;;1.20;1.00;;;30.60;62.20;;;;;;4997829;28;20026;-76
2022/06/25 13:56:45;;;;;;;2.45;1.02;;;30.50;61.70;;;;;;5000700;28;20026;-78
2022/06/25 13:59:11;;;;;;;1.70;0.90;;;30.40;61.20;;;;;;4998756;28;20033;-79
2022/06/25 14:01:36;;;;;;;2.28;1.00;;;30.50;60.90;;;;;;5001566;28;20021;-78
2022/06/25 14:04:02;;;;;;;3.40;1.17;;;30.60;61.10;;;;;;4996203;28;20033;-79
2022/06/25 14:06:28;;;;;;;0.75;0.75;;;30.80;60.20;;;;;;5000332;28;20104;-79
2022/06/25 14:08:54;;;;;;;1.80;1.40;;;30.80;58.40;;;;;;4998840;28;20027;-77
2022/06/25 14:11:20;;;;;;;2.10;1.50;;;;;;;;;;4994876;28;20068;-78
2022/06/25 14:13:47;;;;;;;1.42;0.90;;;31.10;57.40;;;;;;5000475;28;20019;-76